Amelia Island, FL

5:30 AM EDT on August 28, 2015 (GMT -0400)
JP House | | Change Station
CLOSE
Current Station
Personal Weather Station
Location: Fernandina Beach, FL
Elevation: 26 ft
Nearby Weather Stations

Elev 26 ft 30.64 °N, 81.45 °W | Updated 35 seconds ago

Scattered Clouds
Scattered Clouds
73.8 °F
Feels Like 73.8 °F
N
0.0
Wind Variable Wind from SSE
Gusts 0.0 mph

Today
High -- | Low -- °F
--% Chance of Precip.
Yesterday
High -- | Low -- °F
Precip. -- in
6:59 AM 7:53 PM
Waxing Gibbous, 97% visible
Pressure 29.98 in
Visibility 10.0 miles
Clouds Scattered Clouds 9000 ft
Dew Point 74 °F
Humidity 99%
Rainfall 0.00 in
Snow Depth Not available.
UV 0.0 out of 12
Pollen 7.20 out of 12
Air Quality Not available.
Flu Activity Not available.
METAR KFHB 280915Z AUTO 16003KT 10SM SCT090 25/22 A2998 RMK AO1
Pressure 29.98 in
Visibility 10.0 miles
Clouds Scattered Clouds 9000 ft
Dew Point 74 °F
Humidity 99%
Rainfall 0.00 in
Snow Depth Not available.
UV 0.0 out of 12
Pollen 7.20 out of 12
Air Quality Not available.
Flu Activity Not available.
METAR KFHB 280915Z AUTO 16003KT 10SM SCT090 25/22 A2998 RMK AO1
Tropical Storm Erika remains unorganized as it travels through the northeast Caribbean Sea. Puerto Rico could receive over a foot of rain from Erika, which could help the ongoing drought but could also produce dangerous mudslides. Erika is not forecast to reach hurricane strength until Monday when it curves northward along the east coast of Florida. Follow the live blog

10-Day Weather Forecast

×

Almanac

Astronomy

Aug. 28, 2015 Rise Set
Actual Time
Civil Twilight
Nautical Twilight
Astronomical Twilight
Moon
Length of Visible Light
Length of Day
Tomorrow will be .
, % of the Moon is Illuminated

Today's Extremes

State Highs State Lows

Community

WunderPhotos

Upload Photos

1,850,352 photos uploaded!

WunderBlogs® & News

Nearby

Air Quality

  Air Quality AQ Index Pollutant
Not available.

Snow Depth

Station Depth Elevation

Earthquake Activity

City Distance Mag. Time & Date
Minimum magnitude displayed is 2.5.

Coastal Water Temperatures

Place Temperature

Stations

Nearby Weather Stations

Station Location Temp. Windchill Dew Point Humidity Wind Precip. Elev Updated Type